Time;durP1;ratioP1;P1;durP2;ratioP2;P2;SDS_P1;SDS_P2;PMS_P1;PMS_P2;Temp;Humidity;BMP_temperature;BMP_pressure;BME280_temperature;BME280_humidity;BME280_pressure;Samples;Min_cycle;Max_cycle;Signal;HPM_P1;HPM_P2
2024/01/07 00:00:30;;;;;;;5.93;3.78;;;;;;;;;;5031395;28;20793;-69
2024/01/07 00:02:55;;;;;;;4.85;3.10;;;;;;;;;;5032359;28;20025;-69
2024/01/07 00:05:20;;;;;;;4.80;2.77;;;;;;;;;;5031561;28;20045;-69
2024/01/07 00:07:45;;;;;;;5.53;3.13;;;;;;;;;;5031239;28;20278;-69
2024/01/07 00:10:10;;;;;;;4.95;2.92;;;;;;;;;;5032354;28;20024;-69
2024/01/07 00:12:36;;;;;;;3.83;2.63;;;;;;;;;;5031538;28;20024;-69
2024/01/07 00:15:01;;;;;;;3.43;2.50;;;;;;;;;;5032320;28;20282;-69
2024/01/07 00:17:26;;;;;;;5.47;2.83;;;;;;;;;;5032341;28;20330;-69
2024/01/07 00:19:51;;;;;;;4.57;2.87;;;;;;;;;;5031968;28;20750;-69
2024/01/07 00:22:17;;;;;;;2.93;2.30;;;;;;;;;;5031488;28;20271;-69
2024/01/07 00:24:42;;;;;;;3.33;2.45;;;;;;;;;;5033746;28;20265;-69
2024/01/07 00:27:08;;;;;;;3.58;2.30;;;;;;;;;;5031677;28;20017;-69
2024/01/07 00:29:35;;;;;;;2.92;2.28;;;;;;;;;;5031788;28;20396;-69
2024/01/07 00:32:00;;;;;;;4.43;2.78;;;;;;;;;;5032501;28;20101;-68
2024/01/07 00:34:25;;;;;;;4.93;2.93;;;;;;;;;;5026829;28;20092;-69
2024/01/07 00:36:51;;;;;;;3.53;2.43;;;;;;;;;;5031331;28;20680;-69
2024/01/07 00:39:16;;;;;;;4.53;3.27;;;;;;;;;;5031228;28;20695;-69
2024/01/07 00:41:41;;;;;;;4.33;2.60;;;;;;;;;;5031588;28;20277;-69
2024/01/07 00:44:06;;;;;;;4.27;3.00;;;;;;;;;;5032013;28;20301;-68
2024/01/07 00:46:31;;;;;;;3.53;2.70;;;;;;;;;;5031999;28;20287;-69
2024/01/07 00:48:57;;;;;;;3.47;2.47;;;;;;;;;;5031707;28;20349;-68
2024/01/07 00:51:22;;;;;;;3.70;2.73;;;;;;;;;;5031231;28;20029;-69
2024/01/07 00:53:47;;;;;;;3.78;2.60;;;;;;;;;;5031431;28;20629;-69
2024/01/07 00:56:12;;;;;;;6.17;3.37;;;;;;;;;;5029983;28;20030;-69
2024/01/07 00:58:38;;;;;;;4.10;2.77;;;;;;;;;;5031552;28;20266;-69
2024/01/07 01:01:03;;;;;;;3.50;2.53;;;;;;;;;;5031736;28;20259;-68
2024/01/07 01:03:28;;;;;;;5.70;3.22;;;;;;;;;;5030991;28;20159;-68
2024/01/07 01:05:54;;;;;;;5.55;3.75;;;;;;;;;;5031208;28;20036;-69
2024/01/07 01:08:19;;;;;;;4.80;2.90;;;;;;;;;;5031396;28;20017;-68
2024/01/07 01:10:44;;;;;;;5.93;3.63;;;;;;;;;;5031248;28;20111;-69
2024/01/07 01:13:09;;;;;;;5.17;3.10;;;;;;;;;;5031267;28;20025;-69
2024/01/07 01:15:35;;;;;;;4.67;2.97;;;;;;;;;;5029682;28;20258;-69
2024/01/07 01:18:00;;;;;;;4.15;2.80;;;;;;;;;;5030833;28;20754;-69
2024/01/07 01:20:25;;;;;;;4.97;3.27;;;;;;;;;;5030585;28;20025;-68
2024/01/07 01:22:50;;;;;;;5.30;3.20;;;;;;;;;;5029694;28;20274;-69
2024/01/07 01:25:15;;;;;;;5.95;3.58;;;;;;;;;;5029265;28;20025;-69
2024/01/07 01:27:41;;;;;;;6.23;4.03;;;;;;;;;;5030102;28;20151;-69
2024/01/07 01:30:06;;;;;;;6.63;4.25;;;;;;;;;;5031369;28;20318;-69
2024/01/07 01:32:32;;;;;;;4.15;3.00;;;;;;;;;;5031507;28;20039;-69
2024/01/07 01:34:57;;;;;;;6.73;3.97;;;;;;;;;;5029575;28;20022;-68
2024/01/07 01:37:22;;;;;;;6.90;4.40;;;;;;;;;;5030360;28;20270;-69
2024/01/07 01:39:47;;;;;;;7.90;4.07;;;;;;;;;;5030859;28;20055;-69
2024/01/07 01:42:13;;;;;;;4.90;3.70;;;;;;;;;;5031403;28;20274;-69
2024/01/07 01:44:38;;;;;;;7.35;4.20;;;;;;;;;;5031197;28;20148;-69
2024/01/07 01:47:05;;;;;;;7.38;4.43;;;;;;;;;;5029502;28;20061;-69
2024/01/07 01:49:31;;;;;;;5.30;3.70;;;;;;;;;;5031934;28;20021;-69
2024/01/07 01:51:56;;;;;;;6.57;3.90;;;;;;;;;;5034041;28;20032;-68
2024/01/07 01:54:21;;;;;;;6.43;4.35;;;;;;;;;;5035006;28;20075;-69
2024/01/07 01:56:47;;;;;;;6.63;4.57;;;;;;;;;;5034974;28;20385;-68
2024/01/07 01:59:14;;;;;;;5.93;4.18;;;;;;;;;;5034467;28;20025;-69
2024/01/07 02:01:39;;;;;;;5.82;4.35;;;;;;;;;;5033722;28;20466;-69
2024/01/07 02:04:04;;;;;;;7.57;4.90;;;;;;;;;;5034709;28;20032;-68
2024/01/07 02:06:30;;;;;;;7.07;5.00;;;;;;;;;;5034434;28;20258;-68
2024/01/07 02:08:55;;;;;;;6.55;4.32;;;;;;;;;;5033762;28;20397;-68
2024/01/07 02:11:21;;;;;;;6.68;4.25;;;;;;;;;;5034900;28;20033;-69
2024/01/07 02:13:46;;;;;;;7.53;5.00;;;;;;;;;;5034091;28;20496;-69
2024/01/07 02:16:12;;;;;;;7.60;4.45;;;;;;;;;;5035326;28;20485;-69
2024/01/07 02:18:39;;;;;;;5.47;3.92;;;;;;;;;;5036201;28;20045;-69
2024/01/07 02:21:04;;;;;;;6.82;4.60;;;;;;;;;;5034242;28;20060;-68
2024/01/07 02:23:29;;;;;;;7.37;4.90;;;;;;;;;;5033189;28;20049;-68
2024/01/07 02:25:55;;;;;;;7.60;4.70;;;;;;;;;;5034738;28;20290;-68
2024/01/07 02:28:20;;;;;;;7.60;4.57;;;;;;;;;;5033298;28;20369;-69
2024/01/07 02:30:45;;;;;;;7.07;4.63;;;;;;;;;;5034771;28;20370;-69
2024/01/07 02:33:10;;;;;;;8.20;5.03;;;;;;;;;;5034935;28;20266;-69
2024/01/07 02:35:36;;;;;;;6.00;4.30;;;;;;;;;;5034166;28;20275;-69
2024/01/07 02:38:01;;;;;;;7.70;4.63;;;;;;;;;;5032179;28;20634;-69
2024/01/07 02:40:26;;;;;;;8.67;5.17;;;;;;;;;;5018457;28;20029;-69
2024/01/07 02:42:51;;;;;;;7.33;4.77;;;;;;;;;;5031500;28;20281;-69
2024/01/07 02:45:16;;;;;;;8.05;4.60;;;;;;;;;;5035790;28;20254;-69
2024/01/07 02:47:42;;;;;;;8.00;5.43;;;;;;;;;;5036019;28;20029;-69
2024/01/07 02:50:07;;;;;;;7.30;5.20;;;;;;;;;;5036268;28;20243;-69
2024/01/07 02:52:32;;;;;;;7.97;5.22;;;;;;;;;;5034900;28;20029;-68
2024/01/07 02:54:58;;;;;;;7.67;4.67;;;;;;;;;;5034337;28;20024;-69
2024/01/07 02:57:23;;;;;;;7.68;4.35;;;;;;;;;;5034571;28;20290;-69
2024/01/07 02:59:49;;;;;;;8.07;4.90;;;;;;;;;;5034370;28;20021;-69
2024/01/07 03:02:14;;;;;;;6.93;4.17;;;;;;;;;;5024002;28;20292;-69
2024/01/07 03:04:39;;;;;;;13.87;4.97;;;;;;;;;;5033148;28;20294;-69
2024/01/07 03:07:04;;;;;;;9.35;4.75;;;;;;;;;;5034621;28;20419;-69
2024/01/07 03:09:30;;;;;;;7.63;4.80;;;;;;;;;;5035178;28;20021;-69
2024/01/07 03:11:55;;;;;;;7.27;4.83;;;;;;;;;;5034095;28;20036;-69
2024/01/07 03:14:21;;;;;;;5.28;3.72;;;;;;;;;;5034031;28;20039;-69
2024/01/07 03:16:46;;;;;;;5.35;3.85;;;;;;;;;;5034578;28;20460;-69
2024/01/07 03:19:12;;;;;;;7.13;4.20;;;;;;;;;;5035443;28;20079;-69
2024/01/07 03:21:37;;;;;;;6.32;4.25;;;;;;;;;;5032049;28;20025;-69
2024/01/07 03:24:02;;;;;;;7.05;4.53;;;;;;;;;;5033848;28;20033;-69
2024/01/07 03:26:29;;;;;;;6.23;4.13;;;;;;;;;;5032927;28;20017;-66
2024/01/07 03:28:56;;;;;;;7.45;5.05;;;;;;;;;;5034326;28;20349;-66
2024/01/07 03:31:23;;;;;;;6.97;4.82;;;;;;;;;;5032243;28;20032;-66
2024/01/07 03:33:48;;;;;;;6.50;4.45;;;;;;;;;;5033881;28;20153;-66
2024/01/07 03:36:13;;;;;;;8.83;4.93;;;;;;;;;;5032883;28;20139;-66
2024/01/07 03:38:40;;;;;;;7.90;5.15;;;;;;;;;;5032755;28;20294;-66
2024/01/07 03:41:05;;;;;;;8.90;5.65;;;;;;;;;;5032982;28;20017;-66
2024/01/07 03:43:31;;;;;;;13.30;6.40;;;;;;;;;;5032764;28;20040;-66
2024/01/07 03:45:56;;;;;;;8.23;5.00;;;;;;;;;;5031259;28;20022;-66
2024/01/07 03:48:21;;;;;;;8.98;5.50;;;;;;;;;;5035038;28;20389;-66
2024/01/07 03:50:47;;;;;;;11.27;5.67;;;;;;;;;;5035180;28;20017;-66
2024/01/07 03:53:12;;;;;;;8.80;5.45;;;;;;;;;;5034735;28;20250;-66
2024/01/07 03:55:38;;;;;;;8.00;5.38;;;;;;;;;;5034900;28;20036;-66
2024/01/07 03:58:03;;;;;;;10.23;5.57;;;;;;;;;;5034871;28;20025;-66
2024/01/07 04:00:29;;;;;;;10.13;5.55;;;;;;;;;;5034823;28;20300;-67
2024/01/07 04:02:54;;;;;;;13.17;6.60;;;;;;;;;;5034923;28;20458;-66
2024/01/07 04:05:19;;;;;;;12.13;6.73;;;;;;;;;;5034732;28;20262;-66
2024/01/07 04:07:44;;;;;;;12.10;6.70;;;;;;;;;;5034811;28;20273;-66
2024/01/07 04:10:10;;;;;;;9.93;6.30;;;;;;;;;;5032917;28;20470;-66
2024/01/07 04:12:36;;;;;;;11.98;7.20;;;;;;;;;;5032983;28;20030;-66
2024/01/07 04:15:01;;;;;;;13.00;7.13;;;;;;;;;;5032125;28;20379;-67
2024/01/07 04:17:26;;;;;;;11.57;6.10;;;;;;;;;;5032383;28;20048;-67
2024/01/07 04:19:52;;;;;;;11.17;6.97;;;;;;;;;;5032889;28;20022;-68
2024/01/07 04:22:17;;;;;;;12.32;6.90;;;;;;;;;;5031629;28;20266;-68
2024/01/07 04:24:42;;;;;;;12.07;7.50;;;;;;;;;;5025633;28;20511;-68
2024/01/07 04:27:07;;;;;;;10.52;5.95;;;;;;;;;;5032395;28;20789;-68
2024/01/07 04:29:33;;;;;;;11.17;6.80;;;;;;;;;;5030957;28;20057;-67
2024/01/07 04:31:58;;;;;;;10.37;6.23;;;;;;;;;;5034123;28;20718;-68
2024/01/07 04:34:24;;;;;;;9.80;5.70;;;;;;;;;;5034045;28;20235;-68
2024/01/07 04:36:49;;;;;;;9.65;5.53;;;;;;;;;;5032012;28;20265;-70
2024/01/07 04:39:14;;;;;;;12.50;6.32;;;;;;;;;;5032293;28;20097;-70
2024/01/07 04:41:39;;;;;;;9.93;6.23;;;;;;;;;;5030758;28;20025;-69
2024/01/07 04:44:05;;;;;;;10.90;6.10;;;;;;;;;;5032194;28;20274;-69
2024/01/07 04:46:33;;;;;;;9.97;5.60;;;;;;;;;;5033661;28;20266;-70
2024/01/07 04:48:58;;;;;;;11.43;6.55;;;;;;;;;;5033913;28;20718;-69
2024/01/07 04:51:23;;;;;;;8.37;5.67;;;;;;;;;;5033715;28;20105;-70
2024/01/07 04:53:49;;;;;;;10.97;7.07;;;;;;;;;;5033808;28;20337;-70
2024/01/07 04:56:14;;;;;;;11.07;6.13;;;;;;;;;;5034054;28;20338;-70
2024/01/07 04:58:40;;;;;;;11.77;6.13;;;;;;;;;;5033720;28;20531;-70
2024/01/07 05:01:05;;;;;;;10.00;5.82;;;;;;;;;;5033619;28;20273;-70
2024/01/07 05:03:30;;;;;;;7.80;5.13;;;;;;;;;;5033607;28;20021;-70
2024/01/07 05:05:55;;;;;;;10.37;6.23;;;;;;;;;;5033684;28;20735;-70
2024/01/07 05:08:20;;;;;;;9.13;5.57;;;;;;;;;;5033578;28;20283;-70
2024/01/07 05:10:46;;;;;;;10.05;5.88;;;;;;;;;;5033561;28;20247;-70
2024/01/07 05:13:11;;;;;;;13.90;6.82;;;;;;;;;;5033433;28;20385;-70
2024/01/07 05:15:36;;;;;;;10.70;6.33;;;;;;;;;;5033250;28;20056;-69
2024/01/07 05:18:02;;;;;;;11.27;6.40;;;;;;;;;;5031085;28;20275;-69
2024/01/07 05:20:27;;;;;;;10.73;6.15;;;;;;;;;;5031757;28;20266;-70
2024/01/07 05:22:52;;;;;;;12.10;5.83;;;;;;;;;;5031327;28;20374;-70
2024/01/07 05:25:17;;;;;;;13.47;6.07;;;;;;;;;;5030214;28;20796;-70
2024/01/07 05:27:43;;;;;;;13.67;6.73;;;;;;;;;;5031494;28;20348;-70
2024/01/07 05:30:08;;;;;;;11.33;6.33;;;;;;;;;;5031752;28;20262;-69
2024/01/07 05:32:33;;;;;;;11.13;6.68;;;;;;;;;;5032025;28;20345;-70
2024/01/07 05:34:59;;;;;;;12.63;6.78;;;;;;;;;;5033143;28;20009;-70
2024/01/07 05:37:24;;;;;;;10.95;6.57;;;;;;;;;;5031149;28;20052;-69
2024/01/07 05:39:49;;;;;;;10.33;5.83;;;;;;;;;;5029994;28;20104;-70
2024/01/07 05:42:14;;;;;;;12.93;7.23;;;;;;;;;;5031825;28;20612;-70
2024/01/07 05:44:40;;;;;;;13.03;7.00;;;;;;;;;;5030489;28;20772;-70
2024/01/07 05:47:05;;;;;;;12.98;6.53;;;;;;;;;;5032925;28;20270;-68
2024/01/07 05:49:31;;;;;;;10.90;6.93;;;;;;;;;;5033098;28;20013;-67
2024/01/07 05:51:56;;;;;;;11.95;6.57;;;;;;;;;;5032916;28;20025;-67
2024/01/07 05:54:22;;;;;;;11.68;6.60;;;;;;;;;;5033327;28;20025;-67
2024/01/07 05:56:47;;;;;;;11.50;6.57;;;;;;;;;;5032937;28;20113;-68
2024/01/07 05:59:13;;;;;;;11.07;6.55;;;;;;;;;;5033047;28;20097;-67
2024/01/07 06:01:38;;;;;;;10.23;6.40;;;;;;;;;;5033035;28;20462;-67
2024/01/07 06:04:03;;;;;;;12.07;6.90;;;;;;;;;;5032924;28;20753;-67
2024/01/07 06:06:29;;;;;;;9.35;5.85;;;;;;;;;;5032840;28;20261;-67
2024/01/07 06:08:54;;;;;;;11.48;6.00;;;;;;;;;;5032866;28;20026;-67
2024/01/07 06:11:20;;;;;;;11.57;6.03;;;;;;;;;;5033161;28;20022;-67
2024/01/07 06:13:45;;;;;;;9.38;6.00;;;;;;;;;;5032751;28;20247;-67
2024/01/07 06:16:11;;;;;;;11.48;6.60;;;;;;;;;;5032676;28;20045;-67
2024/01/07 06:18:36;;;;;;;8.97;5.60;;;;;;;;;;5032912;28;20029;-67
2024/01/07 06:21:01;;;;;;;14.73;7.17;;;;;;;;;;5032334;28;20620;-68
2024/01/07 06:23:26;;;;;;;11.60;6.47;;;;;;;;;;5030400;28;20738;-68
2024/01/07 06:25:52;;;;;;;10.52;6.38;;;;;;;;;;5031003;28;20653;-68
2024/01/07 06:28:17;;;;;;;10.23;5.60;;;;;;;;;;5030784;28;20060;-68
2024/01/07 06:30:42;;;;;;;11.03;6.13;;;;;;;;;;5031324;28;20367;-67
2024/01/07 06:33:07;;;;;;;11.30;6.18;;;;;;;;;;5031660;28;20760;-67
2024/01/07 06:35:33;;;;;;;10.70;5.10;;;;;;;;;;5033441;28;20010;-67
2024/01/07 06:37:58;;;;;;;9.20;5.63;;;;;;;;;;5033941;28;20027;-68
2024/01/07 06:40:23;;;;;;;9.03;5.53;;;;;;;;;;5034555;28;20029;-68
2024/01/07 06:42:49;;;;;;;9.20;5.13;;;;;;;;;;5033883;28;20353;-67
2024/01/07 06:45:15;;;;;;;9.27;5.65;;;;;;;;;;5034623;28;20120;-68
2024/01/07 06:47:40;;;;;;;8.77;4.93;;;;;;;;;;5035073;28;20021;-68
2024/01/07 06:50:05;;;;;;;9.10;5.30;;;;;;;;;;5035372;28;20024;-67
2024/01/07 06:52:31;;;;;;;9.40;5.32;;;;;;;;;;5035226;28;20469;-67
2024/01/07 06:54:56;;;;;;;9.60;5.38;;;;;;;;;;5033745;28;20018;-68
2024/01/07 06:57:21;;;;;;;8.60;5.15;;;;;;;;;;5034827;28;20025;-67
2024/01/07 06:59:47;;;;;;;7.75;4.80;;;;;;;;;;5034572;28;20028;-68
2024/01/07 07:02:12;;;;;;;9.47;5.17;;;;;;;;;;5034414;28;20080;-68
2024/01/07 07:04:37;;;;;;;11.57;5.93;;;;;;;;;;5034674;28;20308;-68
2024/01/07 07:07:03;;;;;;;10.13;5.20;;;;;;;;;;5034686;28;20022;-68
2024/01/07 07:09:28;;;;;;;9.35;5.32;;;;;;;;;;5034744;28;20250;-67
2024/01/07 07:11:53;;;;;;;9.20;4.93;;;;;;;;;;5034719;28;20021;-67
2024/01/07 07:14:19;;;;;;;7.88;4.90;;;;;;;;;;5034016;28;20610;-68
2024/01/07 07:16:44;;;;;;;9.15;5.05;;;;;;;;;;5033626;28;20189;-67
2024/01/07 07:19:14;;;;;;;9.50;5.10;;;;;;;;;;5031467;28;20022;-67
2024/01/07 07:21:39;;;;;;;9.15;5.00;;;;;;;;;;5033137;28;20699;-68
2024/01/07 07:24:04;;;;;;;9.48;5.57;;;;;;;;;;5032881;28;20112;-68
2024/01/07 07:26:30;;;;;;;8.52;5.03;;;;;;;;;;5030890;28;20409;-68
2024/01/07 07:28:55;;;;;;;9.50;5.15;;;;;;;;;;5032175;28;20017;-67
2024/01/07 07:31:20;;;;;;;11.13;5.40;;;;;;;;;;5032467;28;20025;-67
2024/01/07 07:33:45;;;;;;;8.17;5.03;;;;;;;;;;5033026;28;20286;-67
2024/01/07 07:36:10;;;;;;;9.40;5.13;;;;;;;;;;5034178;28;20266;-67
2024/01/07 07:38:36;;;;;;;7.50;4.37;;;;;;;;;;5032564;28;20506;-68
2024/01/07 07:41:01;;;;;;;8.13;4.38;;;;;;;;;;5031246;28;20695;-67
2024/01/07 07:43:26;;;;;;;7.88;4.95;;;;;;;;;;5032773;28;20025;-67
2024/01/07 07:45:52;;;;;;;6.35;4.05;;;;;;;;;;5031043;28;20033;-68
2024/01/07 07:48:18;;;;;;;9.27;4.73;;;;;;;;;;5030873;28;20064;-67
2024/01/07 07:50:43;;;;;;;6.63;3.83;;;;;;;;;;5032107;28;20286;-67
2024/01/07 07:53:08;;;;;;;8.30;4.67;;;;;;;;;;5031783;28;20486;-68
2024/01/07 07:55:33;;;;;;;6.68;4.15;;;;;;;;;;5031404;28;20761;-67
2024/01/07 07:57:59;;;;;;;8.93;5.13;;;;;;;;;;5030452;28;20017;-67
2024/01/07 08:00:24;;;;;;;6.93;4.57;;;;;;;;;;5031291;28;20677;-68
2024/01/07 08:02:49;;;;;;;7.93;4.60;;;;;;;;;;5032027;28;20332;-68
2024/01/07 08:05:14;;;;;;;8.93;4.80;;;;;;;;;;5033518;28;20052;-68
2024/01/07 08:07:40;;;;;;;7.40;4.45;;;;;;;;;;5032144;28;20035;-68
2024/01/07 08:10:06;;;;;;;6.83;4.33;;;;;;;;;;5031917;28;20026;-68
2024/01/07 08:12:31;;;;;;;8.05;4.60;;;;;;;;;;5032362;28;20266;-68
2024/01/07 08:14:57;;;;;;;9.57;4.87;;;;;;;;;;5031010;28;20032;-68
2024/01/07 08:17:22;;;;;;;11.93;5.37;;;;;;;;;;5031110;28;20344;-67
2024/01/07 08:19:47;;;;;;;8.00;4.47;;;;;;;;;;5029788;28;20308;-68
2024/01/07 08:22:13;;;;;;;9.07;5.30;;;;;;;;;;5031968;28;20316;-68
2024/01/07 08:24:39;;;;;;;8.82;4.82;;;;;;;;;;5031658;28;20275;-67
2024/01/07 08:27:05;;;;;;;8.23;4.40;;;;;;;;;;5031421;28;20076;-67
2024/01/07 08:29:30;;;;;;;7.68;4.95;;;;;;;;;;5031951;28;20022;-67
2024/01/07 08:31:55;;;;;;;9.55;4.65;;;;;;;;;;5031771;28;20461;-68
2024/01/07 08:34:20;;;;;;;8.73;4.67;;;;;;;;;;5030864;28;20013;-68
2024/01/07 08:36:46;;;;;;;7.77;5.17;;;;;;;;;;5033038;28;20025;-68
2024/01/07 08:39:11;;;;;;;9.18;4.78;;;;;;;;;;5030740;28;20270;-68
2024/01/07 08:41:36;;;;;;;9.90;5.60;;;;;;;;;;5031048;28;20459;-68
2024/01/07 08:44:02;;;;;;;9.47;5.30;;;;;;;;;;5031757;28;20017;-68
2024/01/07 08:46:27;;;;;;;9.00;4.88;;;;;;;;;;5032458;28;20246;-68
2024/01/07 08:48:52;;;;;;;7.68;4.70;;;;;;;;;;5032742;28;20033;-67
2024/01/07 08:51:17;;;;;;;8.20;4.67;;;;;;;;;;5032826;28;20057;-68
2024/01/07 08:53:42;;;;;;;10.23;5.93;;;;;;;;;;5032757;28;20274;-67
2024/01/07 08:56:08;;;;;;;8.70;5.17;;;;;;;;;;5032724;28;20322;-68
2024/01/07 08:58:33;;;;;;;10.48;5.75;;;;;;;;;;5031636;28;20239;-68
2024/01/07 09:00:59;;;;;;;11.00;5.30;;;;;;;;;;5031700;28;20442;-67
2024/01/07 09:03:24;;;;;;;10.00;6.03;;;;;;;;;;5032546;28;20239;-68
2024/01/07 09:05:49;;;;;;;10.47;6.03;;;;;;;;;;5032562;28;20618;-70
2024/01/07 09:08:14;;;;;;;9.85;5.78;;;;;;;;;;5032815;28;20665;-80
2024/01/07 09:10:40;;;;;;;10.97;6.17;;;;;;;;;;5032777;28;20025;-79
2024/01/07 09:13:05;;;;;;;9.77;5.20;;;;;;;;;;5032250;28;20242;-78
2024/01/07 09:15:31;;;;;;;8.25;5.43;;;;;;;;;;5028778;28;20521;-79
2024/01/07 09:17:56;;;;;;;8.27;5.22;;;;;;;;;;5025166;28;20042;-78
2024/01/07 09:20:21;;;;;;;10.10;5.63;;;;;;;;;;5028294;28;20432;-79
2024/01/07 09:22:48;;;;;;;8.93;5.30;;;;;;;;;;5029519;28;20033;-79
2024/01/07 09:25:13;;;;;;;8.90;5.25;;;;;;;;;;5028079;28;20278;-80
2024/01/07 09:27:38;;;;;;;10.45;6.18;;;;;;;;;;5025605;28;20030;-78
2024/01/07 09:30:04;;;;;;;9.83;5.30;;;;;;;;;;5022537;28;20045;-79
2024/01/07 09:32:29;;;;;;;8.48;5.43;;;;;;;;;;5028838;28;20761;-79
2024/01/07 09:34:54;;;;;;;9.13;5.00;;;;;;;;;;5031407;28;20017;-78
2024/01/07 09:37:19;;;;;;;7.70;4.47;;;;;;;;;;5032551;28;20040;-78
2024/01/07 09:39:45;;;;;;;10.37;5.47;;;;;;;;;;5030913;28;20267;-78
2024/01/07 09:42:12;;;;;;;10.68;5.45;;;;;;;;;;5028696;28;20262;-79
2024/01/07 09:44:37;;;;;;;8.85;5.07;;;;;;;;;;5031215;28;20474;-79
2024/01/07 09:47:04;;;;;;;8.97;5.10;;;;;;;;;;5029713;28;20056;-76
2024/01/07 09:49:29;;;;;;;8.57;4.72;;;;;;;;;;5030286;28;20611;-78
2024/01/07 09:51:57;;;;;;;7.80;4.60;;;;;;;;;;5029197;28;20068;-79
2024/01/07 09:54:22;;;;;;;8.45;4.20;;;;;;;;;;5031091;28;20022;-78
2024/01/07 09:56:55;;;;;;;6.57;4.28;;;;;;;;;;5030007;28;20374;-78
2024/01/07 09:59:20;;;;;;;8.23;4.10;;;;;;;;;;5031254;28;20470;-78
2024/01/07 10:01:46;;;;;;;6.13;3.85;;;;;;;;;;5028692;28;20018;-78
2024/01/07 10:04:11;;;;;;;9.02;3.97;;;;;;;;;;5021918;28;20104;-78
2024/01/07 10:06:37;;;;;;;6.75;4.10;;;;;;;;;;5031406;28;20069;-77
2024/01/07 10:09:03;;;;;;;6.90;4.25;;;;;;;;;;5032517;28;20080;-78
2024/01/07 10:11:28;;;;;;;9.68;3.90;;;;;;;;;;5032789;28;20480;-77
2024/01/07 10:13:53;;;;;;;5.60;3.92;;;;;;;;;;5033971;28;20021;-77
2024/01/07 10:16:19;;;;;;;6.90;4.00;;;;;;;;;;5034258;28;20038;-77
2024/01/07 10:18:44;;;;;;;7.40;4.68;;;;;;;;;;5034052;28;20078;-78
2024/01/07 10:21:09;;;;;;;9.13;3.78;;;;;;;;;;5034518;28;20362;-78
2024/01/07 10:23:35;;;;;;;6.63;4.00;;;;;;;;;;5033408;28;20033;-79
2024/01/07 10:26:02;;;;;;;6.22;4.32;;;;;;;;;;5033713;28;20032;-75
2024/01/07 10:28:27;;;;;;;5.53;3.92;;;;;;;;;;5033738;28;20068;-79
2024/01/07 10:30:52;;;;;;;6.10;3.88;;;;;;;;;;5032860;28;20022;-80
2024/01/07 10:33:19;;;;;;;6.68;4.45;;;;;;;;;;5031830;28;20017;-80
2024/01/07 10:35:48;;;;;;;7.20;4.05;;;;;;;;;;5032969;28;20025;-80
2024/01/07 10:38:13;;;;;;;5.07;3.60;;;;;;;;;;5035728;28;20382;-74
2024/01/07 10:40:40;;;;;;;5.55;3.95;;;;;;;;;;5031671;28;20029;-80
2024/01/07 10:43:05;;;;;;;6.07;3.78;;;;;;;;;;5035825;28;20039;-79
2024/01/07 10:45:31;;;;;;;7.68;4.82;;;;;;;;;;5030876;28;20018;-79
2024/01/07 10:47:58;;;;;;;6.95;4.30;;;;;;;;;;5030147;28;20117;-80
2024/01/07 10:50:26;;;;;;;11.00;4.60;;;;;;;;;;5033130;28;20029;-80
2024/01/07 10:52:57;;;;;;;5.75;3.90;;;;;;;;;;5031375;28;20377;-80
2024/01/07 10:55:26;;;;;;;7.00;4.45;;;;;;;;;;5029658;28;20025;-79
2024/01/07 10:57:53;;;;;;;7.05;4.32;;;;;;;;;;5033768;28;20029;-80
2024/01/07 11:00:18;;;;;;;7.32;4.32;;;;;;;;;;5033772;28;20358;-80
2024/01/07 11:02:57;;;;;;;10.75;5.05;;;;;;;;;;5033642;28;20029;-79
2024/01/07 11:05:37;;;;;;;7.70;4.38;;;;;;;;;;5034083;28;20021;-80
2024/01/07 11:08:32;;;;;;;6.82;4.10;;;;;;;;;;5032137;28;20032;-79
2024/01/07 11:11:03;;;;;;;6.70;4.07;;;;;;;;;;5015967;28;20531;-79
2024/01/07 11:13:37;;;;;;;7.73;4.70;;;;;;;;;;5032044;28;20032;-79
2024/01/07 11:16:02;;;;;;;8.30;4.82;;;;;;;;;;5032187;28;20458;-79
2024/01/07 11:18:33;;;;;;;7.00;4.15;;;;;;;;;;5031836;28;20120;-79
2024/01/07 11:21:01;;;;;;;13.60;4.30;;;;;;;;;;5033973;28;20500;-79
2024/01/07 11:23:28;;;;;;;9.45;4.63;;;;;;;;;;5032262;28;20485;-79
2024/01/07 11:25:53;;;;;;;8.55;4.90;;;;;;;;;;5034477;28;20033;-79
2024/01/07 11:28:18;;;;;;;8.90;5.27;;;;;;;;;;5034831;28;20030;-79
2024/01/07 11:30:47;;;;;;;11.20;5.75;;;;;;;;;;5030832;28;20259;-79
2024/01/07 11:33:13;;;;;;;9.02;4.93;;;;;;;;;;5032585;28;20017;-79
2024/01/07 11:35:55;;;;;;;7.25;4.40;;;;;;;;;;5031406;28;20024;-80
2024/01/07 11:38:20;;;;;;;8.80;5.43;;;;;;;;;;5031589;28;20020;-82
2024/01/07 11:40:46;;;;;;;9.40;4.70;;;;;;;;;;5026537;28;20017;-82
2024/01/07 11:43:12;;;;;;;10.43;5.47;;;;;;;;;;5031752;28;20269;-80
2024/01/07 11:45:37;;;;;;;7.50;5.15;;;;;;;;;;5029986;28;20944;-67
2024/01/07 11:48:04;;;;;;;8.80;5.43;;;;;;;;;;5031859;28;20036;-67
2024/01/07 11:50:29;;;;;;;8.80;5.72;;;;;;;;;;5032311;28;20281;-67
2024/01/07 11:52:55;;;;;;;8.68;5.18;;;;;;;;;;5033103;28;20021;-67
2024/01/07 11:55:21;;;;;;;8.25;4.85;;;;;;;;;;5031028;28;20041;-67
2024/01/07 11:57:46;;;;;;;7.47;4.65;;;;;;;;;;5033341;28;20057;-68
2024/01/07 12:00:11;;;;;;;8.47;4.87;;;;;;;;;;5031526;28;20025;-67
2024/01/07 12:02:37;;;;;;;9.05;5.35;;;;;;;;;;5032048;28;20274;-68
2024/01/07 12:05:02;;;;;;;8.40;6.00;;;;;;;;;;5031005;28;20021;-68
2024/01/07 12:07:27;;;;;;;10.32;6.15;;;;;;;;;;5030823;28;20778;-67
2024/01/07 12:09:57;;;;;;;12.45;5.82;;;;;;;;;;5033093;28;20024;-67
2024/01/07 12:12:23;;;;;;;10.25;5.45;;;;;;;;;;5030652;28;20021;-67
2024/01/07 12:14:48;;;;;;;9.52;5.40;;;;;;;;;;5032086;28;20478;-67
2024/01/07 12:17:16;;;;;;;8.80;5.85;;;;;;;;;;5028871;28;20083;-67
2024/01/07 12:19:41;;;;;;;8.40;5.60;;;;;;;;;;5032896;28;20033;-67
2024/01/07 12:22:07;;;;;;;8.13;5.15;;;;;;;;;;5029083;28;20108;-67
2024/01/07 12:24:32;;;;;;;11.07;5.60;;;;;;;;;;5031830;28;20034;-67
2024/01/07 12:27:03;;;;;;;10.60;6.32;;;;;;;;;;5031201;28;20037;-67
2024/01/07 12:29:28;;;;;;;11.40;5.43;;;;;;;;;;5030017;28;20090;-67
2024/01/07 12:31:53;;;;;;;8.90;4.60;;;;;;;;;;5032324;28;20013;-67
2024/01/07 12:34:20;;;;;;;7.10;4.37;;;;;;;;;;5031734;28;20669;-67
2024/01/07 12:36:47;;;;;;;6.38;4.38;;;;;;;;;;5031310;28;20341;-67
2024/01/07 12:39:12;;;;;;;9.48;5.47;;;;;;;;;;5031816;28;20030;-67
2024/01/07 12:41:37;;;;;;;6.13;4.23;;;;;;;;;;5032515;28;20037;-67
2024/01/07 12:44:03;;;;;;;9.53;4.77;;;;;;;;;;5031174;28;20263;-68
2024/01/07 12:46:28;;;;;;;7.07;4.47;;;;;;;;;;5031695;28;20282;-66
2024/01/07 12:48:54;;;;;;;6.68;4.15;;;;;;;;;;5033180;28;20030;-65
2024/01/07 12:51:19;;;;;;;7.10;3.70;;;;;;;;;;5033199;28;20013;-65
2024/01/07 12:53:44;;;;;;;6.55;3.97;;;;;;;;;;5033412;28;20274;-66
2024/01/07 12:56:09;;;;;;;9.10;4.10;;;;;;;;;;5031523;28;20048;-66
2024/01/07 12:58:35;;;;;;;5.93;4.27;;;;;;;;;;5033107;28;20021;-66
2024/01/07 13:01:00;;;;;;;8.02;4.15;;;;;;;;;;5030595;28;20263;-65
2024/01/07 13:03:25;;;;;;;8.73;4.88;;;;;;;;;;5032248;28;20025;-65
2024/01/07 13:05:51;;;;;;;8.13;4.57;;;;;;;;;;5032060;28;20354;-65
2024/01/07 13:08:18;;;;;;;7.18;5.03;;;;;;;;;;5031488;28;20025;-66
2024/01/07 13:10:44;;;;;;;6.85;4.47;;;;;;;;;;5030569;28;20021;-65
2024/01/07 13:13:09;;;;;;;6.63;3.53;;;;;;;;;;5032685;28;20025;-66
2024/01/07 13:15:35;;;;;;;7.32;3.65;;;;;;;;;;5032466;28;20029;-65
2024/01/07 13:18:00;;;;;;;7.75;3.90;;;;;;;;;;5028439;28;20041;-65
2024/01/07 13:20:25;;;;;;;6.13;3.70;;;;;;;;;;5032664;28;20368;-65
2024/01/07 13:22:50;;;;;;;7.33;4.30;;;;;;;;;;5032937;28;20258;-65
2024/01/07 13:25:16;;;;;;;7.23;4.37;;;;;;;;;;5032581;28;20316;-65
2024/01/07 13:27:42;;;;;;;6.43;3.73;;;;;;;;;;5032072;28;20797;-65
2024/01/07 13:30:08;;;;;;;6.35;4.40;;;;;;;;;;5030621;28;20033;-65
2024/01/07 13:32:36;;;;;;;6.40;3.88;;;;;;;;;;5031487;28;20029;-65
2024/01/07 13:35:05;;;;;;;4.90;3.50;;;;;;;;;;5030761;28;20048;-65
2024/01/07 13:37:30;;;;;;;5.95;3.95;;;;;;;;;;5032554;28;20025;-65
2024/01/07 13:39:56;;;;;;;7.27;4.50;;;;;;;;;;5031395;28;20032;-65
2024/01/07 13:42:21;;;;;;;5.30;3.53;;;;;;;;;;5029918;28;20293;-65
2024/01/07 13:44:46;;;;;;;5.43;3.30;;;;;;;;;;5030556;28;20033;-65
2024/01/07 13:47:16;;;;;;;6.17;3.53;;;;;;;;;;5036633;28;20337;-66
2024/01/07 13:49:41;;;;;;;7.35;4.40;;;;;;;;;;5037358;28;20040;-65
2024/01/07 13:52:06;;;;;;;6.00;3.78;;;;;;;;;;5038051;28;20484;-65
2024/01/07 13:54:32;;;;;;;5.63;3.20;;;;;;;;;;5039065;28;20056;-65
2024/01/07 13:56:57;;;;;;;7.03;4.10;;;;;;;;;;5039183;28;20250;-67
2024/01/07 13:59:23;;;;;;;7.83;3.80;;;;;;;;;;5038481;28;20096;-68
2024/01/07 14:01:48;;;;;;;6.05;3.83;;;;;;;;;;5033033;28;20419;-68
2024/01/07 14:04:13;;;;;;;5.53;3.63;;;;;;;;;;5027360;28;20476;-67
2024/01/07 14:06:38;;;;;;;5.30;3.30;;;;;;;;;;5039062;28;20025;-68
2024/01/07 14:09:06;;;;;;;5.73;4.00;;;;;;;;;;5038858;28;20298;-67
2024/01/07 14:11:31;;;;;;;6.47;3.95;;;;;;;;;;5039111;28;20605;-68
2024/01/07 14:13:56;;;;;;;7.65;3.80;;;;;;;;;;5038495;28;20017;-68
2024/01/07 14:16:22;;;;;;;6.45;3.42;;;;;;;;;;5038514;28;20455;-67
2024/01/07 14:18:47;;;;;;;7.43;4.07;;;;;;;;;;5038956;28;20029;-68
2024/01/07 14:21:12;;;;;;;4.43;3.23;;;;;;;;;;5038675;28;20104;-68
2024/01/07 14:23:38;;;;;;;5.40;3.57;;;;;;;;;;5038705;28;20254;-68
2024/01/07 14:26:03;;;;;;;7.43;4.28;;;;;;;;;;5038903;28;20718;-68
2024/01/07 14:28:28;;;;;;;8.43;4.63;;;;;;;;;;5038431;28;20029;-68
2024/01/07 14:30:54;;;;;;;6.63;3.92;;;;;;;;;;5038557;28;20017;-68